createdAt,value
2018-03-02T00:01:06.142Z,0
2018-03-02T00:02:15.951Z,0
2018-03-02T00:03:25.735Z,0
2018-03-02T00:04:35.569Z,0
2018-03-02T00:05:45.635Z,0
2018-03-02T00:06:55.421Z,0
2018-03-02T00:08:04.971Z,0
2018-03-02T00:09:14.760Z,0
2018-03-02T00:10:24.885Z,0
2018-03-02T00:11:34.687Z,0
2018-03-02T00:12:44.490Z,0
2018-03-02T00:13:54.285Z,0
2018-03-02T00:15:04.090Z,0
2018-03-02T00:16:14.138Z,0
2018-03-02T00:17:24.208Z,0
2018-03-02T00:18:34.272Z,0
2018-03-02T00:19:43.823Z,0
2018-03-02T00:20:53.875Z,0
2018-03-02T00:22:03.725Z,0
2018-03-02T00:23:13.790Z,0
2018-03-02T00:24:23.584Z,0
2018-03-02T00:25:33.388Z,0
2018-03-02T00:26:42.915Z,0
2018-03-02T00:27:52.992Z,0
2018-03-02T00:29:02.809Z,0
2018-03-02T00:30:12.609Z,0
2018-03-02T00:31:22.660Z,0
2018-03-02T00:32:32.437Z,0
2018-03-02T00:33:42.595Z,0
2018-03-02T00:34:52.379Z,0
2018-03-02T00:36:02.194Z,0
2018-03-02T00:37:12.243Z,0
2018-03-02T00:38:22.041Z,0
2018-03-02T00:39:31.635Z,0
2018-03-02T00:40:41.414Z,0
2018-03-02T00:41:51.485Z,0
2018-03-02T00:43:01.514Z,0
2018-03-02T00:44:11.064Z,0
2018-03-02T00:45:20.911Z,0
2018-03-02T00:46:30.428Z,0
2018-03-02T00:47:40.224Z,0
2018-03-02T00:48:50.307Z,0
2018-03-02T00:50:00.104Z,0
2018-03-02T00:51:09.636Z,0
2018-03-02T00:52:19.678Z,0
2018-03-02T00:53:29.208Z,0
2018-03-02T00:54:39.250Z,0
2018-03-02T00:55:48.803Z,0
2018-03-02T00:56:58.653Z,0
2018-03-02T00:58:08.716Z,0
2018-03-02T00:59:18.512Z,0
2018-03-02T01:00:28.310Z,0
2018-03-02T01:01:38.128Z,0
2018-03-02T01:02:47.669Z,0
2018-03-02T01:03:57.461Z,0
2018-03-02T01:05:07.514Z,0
2018-03-02T01:06:17.583Z,0
2018-03-02T01:07:27.372Z,0
2018-03-02T01:08:37.204Z,0
2018-03-02T01:09:46.758Z,0
2018-03-02T01:10:56.822Z,0
2018-03-02T01:12:06.867Z,0
2018-03-02T01:13:16.659Z,0
2018-03-02T01:14:26.450Z,0
2018-03-02T01:15:36.490Z,0
2018-03-02T01:16:46.284Z,0
2018-03-02T01:17:56.070Z,0
2018-03-02T01:19:05.856Z,0
2018-03-02T01:20:15.956Z,0
2018-03-02T01:21:26.006Z,0
2018-03-02T01:22:35.820Z,0
2018-03-02T01:23:45.595Z,0
2018-03-02T01:24:55.365Z,0
2018-03-02T01:26:05.155Z,0
2018-03-02T01:27:14.943Z,0
2018-03-02T01:28:24.741Z,0
2018-03-02T01:29:34.793Z,0
2018-03-02T01:30:44.314Z,0
2018-03-02T01:31:54.156Z,0
2018-03-02T01:33:04.222Z,0
2018-03-02T01:34:14.060Z,0
2018-03-02T01:35:24.172Z,0
2018-03-02T01:36:34.229Z,0
2018-03-02T01:37:44.026Z,0
2018-03-02T01:38:54.086Z,0
2018-03-02T01:40:03.335Z,0
2018-03-02T01:41:13.380Z,0
2018-03-02T01:42:23.180Z,0
2018-03-02T01:43:33.010Z,0
2018-03-02T01:44:42.796Z,0
2018-03-02T01:45:52.580Z,0
2018-03-02T01:47:02.615Z,0
2018-03-02T01:48:12.391Z,0
2018-03-02T01:49:22.178Z,0
2018-03-02T01:50:32.215Z,0
2018-03-02T01:51:42.004Z,0
2018-03-02T01:52:51.543Z,0
2018-03-02T01:54:01.072Z,0
2018-03-02T01:55:10.638Z,0
2018-03-02T01:56:20.674Z,0
2018-03-02T01:57:30.714Z,0
2018-03-02T01:58:40.516Z,0
2018-03-02T01:59:50.294Z,0
2018-03-02T02:00:59.621Z,0
2018-03-02T02:02:09.415Z,0
2018-03-02T02:03:18.950Z,0
2018-03-02T02:04:29.021Z,0
2018-03-02T02:05:39.077Z,0
2018-03-02T02:06:48.909Z,0
2018-03-02T02:07:58.959Z,0
2018-03-02T02:09:09.027Z,0
2018-03-02T02:10:18.541Z,0
2018-03-02T02:11:28.587Z,0
2018-03-02T02:12:38.644Z,0
2018-03-02T02:13:48.689Z,0
2018-03-02T02:14:58.795Z,0
2018-03-02T02:16:08.579Z,0
2018-03-02T02:17:18.663Z,0
2018-03-02T02:18:28.446Z,0
2018-03-02T02:19:38.489Z,0
2018-03-02T02:20:48.546Z,0
2018-03-02T02:21:58.331Z,0
2018-03-02T02:23:07.595Z,0
2018-03-02T02:24:17.376Z,0
2018-03-02T02:25:27.428Z,0
2018-03-02T02:26:37.230Z,0
2018-03-02T02:27:46.758Z,0
2018-03-02T02:28:56.263Z,0
2018-03-02T02:30:06.386Z,0
2018-03-02T02:31:16.459Z,0
2018-03-02T02:32:26.513Z,0
2018-03-02T02:33:36.571Z,0
2018-03-02T02:34:46.671Z,0
2018-03-02T02:35:56.204Z,0
2018-03-02T02:37:06.256Z,0
2018-03-02T02:38:16.330Z,0
2018-03-02T02:39:26.119Z,0
2018-03-02T02:40:35.912Z,0
2018-03-02T02:41:45.180Z,0
2018-03-02T02:42:54.460Z,0
2018-03-02T02:44:04.522Z,0
2018-03-02T02:45:14.309Z,0
2018-03-02T02:46:24.369Z,0
2018-03-02T02:47:34.169Z,0
2018-03-02T02:48:44.240Z,0
2018-03-02T02:49:54.054Z,0
2018-03-02T02:51:04.158Z,0
2018-03-02T02:52:14.212Z,0
2018-03-02T02:53:24.506Z,0
2018-03-02T02:54:34.322Z,0
2018-03-02T02:55:44.381Z,0
2018-03-02T02:56:53.913Z,0
2018-03-02T02:58:03.716Z,0
2018-03-02T02:59:14.012Z,0
2018-03-02T03:00:23.813Z,0
2018-03-02T03:01:33.863Z,0
2018-03-02T03:02:43.664Z,0
2018-03-02T03:03:53.729Z,0
2018-03-02T03:05:03.528Z,0
2018-03-02T03:06:13.345Z,0
2018-03-02T03:07:22.892Z,0
2018-03-02T03:39:19.140Z,0
2018-03-02T03:40:29.175Z,0
2018-03-02T03:41:38.708Z,0
2018-03-02T03:42:48.734Z,0
2018-03-02T03:43:58.515Z,0
2018-03-02T03:45:08.620Z,0
2018-03-02T03:46:18.665Z,0
2018-03-02T03:47:28.724Z,0
2018-03-02T03:48:38.511Z,0
2018-03-02T03:49:48.301Z,0
2018-03-02T03:50:57.838Z,0
2018-03-02T03:52:07.109Z,0
2018-03-02T03:53:17.157Z,0
2018-03-02T03:54:26.943Z,0
2018-03-02T03:55:37.001Z,0
2018-03-02T03:56:47.096Z,0
2018-03-02T03:57:57.135Z,0
2018-03-02T03:59:07.176Z,0
2018-03-02T04:00:17.220Z,0
2018-03-02T04:01:27.272Z,0
2018-03-02T04:02:37.119Z,0
2018-03-02T04:03:47.162Z,0
2018-03-02T04:04:56.952Z,0
2018-03-02T04:06:06.990Z,0
2018-03-02T04:07:16.779Z,0
2018-03-02T04:08:26.838Z,0
2018-03-02T04:09:36.901Z,0
2018-03-02T04:10:46.690Z,0
2018-03-02T04:11:56.750Z,0
2018-03-02T04:13:06.541Z,0
2018-03-02T04:14:16.112Z,0
2018-03-02T04:15:26.169Z,0
2018-03-02T04:16:36.006Z,0
2018-03-02T04:17:46.067Z,0
2018-03-02T04:18:55.844Z,0
2018-03-02T04:20:05.697Z,0
2018-03-02T04:21:15.497Z,0
2018-03-02T04:22:25.545Z,0
2018-03-02T04:23:35.321Z,0
2018-03-02T04:24:45.372Z,0
2018-03-02T04:25:55.425Z,0
2018-03-02T04:27:04.956Z,0
2018-03-02T04:28:14.744Z,0
2018-03-02T04:29:24.806Z,0
2018-03-02T04:30:34.353Z,0
2018-03-02T04:31:44.408Z,0
2018-03-02T04:32:54.460Z,0
2018-03-02T04:34:04.513Z,0
2018-03-02T04:35:14.588Z,0
2018-03-02T04:36:24.618Z,0
2018-03-02T04:37:34.413Z,0
2018-03-02T04:38:44.202Z,0
2018-03-02T04:39:54.270Z,0
2018-03-02T04:41:04.327Z,0
2018-03-02T04:42:14.399Z,0
2018-03-02T04:43:23.970Z,0
2018-03-02T04:44:33.737Z,0
2018-03-02T04:45:43.562Z,0
2018-03-02T04:46:53.620Z,0
2018-03-02T04:48:03.397Z,0
2018-03-02T04:49:13.459Z,0
2018-03-02T04:50:23.248Z,0
2018-03-02T04:51:32.767Z,0
2018-03-02T04:52:42.579Z,0
2018-03-02T04:53:52.110Z,0
2018-03-02T04:55:01.904Z,0
2018-03-02T04:56:11.957Z,0
2018-03-02T04:57:21.747Z,0
2018-03-02T04:58:31.532Z,0
2018-03-02T04:59:41.311Z,0
2018-03-02T05:00:51.090Z,0
2018-03-02T05:02:00.351Z,0
2018-03-02T05:03:09.906Z,0
2018-03-02T05:04:19.948Z,0
2018-03-02T05:05:29.988Z,0
2018-03-02T05:06:40.045Z,0
2018-03-02T05:07:49.308Z,0
2018-03-02T05:08:59.099Z,0
2018-03-02T05:10:08.898Z,0
2018-03-02T05:11:18.975Z,0
2018-03-02T05:12:28.771Z,4
2018-03-02T05:13:38.826Z,4
2018-03-02T05:14:48.614Z,4
2018-03-02T05:15:58.494Z,0
2018-03-02T05:17:08.567Z,0
2018-03-02T05:18:18.600Z,4
2018-03-02T05:19:28.659Z,4
2018-03-02T05:20:38.203Z,0
2018-03-02T05:21:48.045Z,4
2018-03-02T05:22:57.820Z,4
2018-03-02T05:24:07.932Z,4
2018-03-02T05:25:17.719Z,4
2018-03-02T05:26:27.517Z,4
2018-03-02T05:27:37.302Z,8
2018-03-02T05:28:47.351Z,8
2018-03-02T05:29:57.163Z,8
2018-03-02T05:31:06.942Z,12
2018-03-02T05:32:16.754Z,8
2018-03-02T05:33:26.545Z,12
2018-03-02T05:34:36.597Z,12
2018-03-02T05:35:46.685Z,16
2018-03-02T05:36:56.779Z,16
2018-03-02T05:38:06.290Z,16
2018-03-02T05:39:15.814Z,16
2018-03-02T05:40:25.876Z,20
2018-03-02T05:41:36.009Z,24
2018-03-02T05:42:46.045Z,20
2018-03-02T05:43:55.567Z,24
2018-03-02T05:45:05.373Z,28
2018-03-02T05:46:15.157Z,28
2018-03-02T05:47:25.213Z,28
2018-03-02T05:48:35.276Z,32
2018-03-02T05:49:45.061Z,32
2018-03-02T05:50:54.845Z,32
2018-03-02T05:52:04.638Z,36
2018-03-02T05:53:14.741Z,36
2018-03-02T05:54:24.794Z,44
2018-03-02T05:55:34.844Z,44
2018-03-02T05:56:44.638Z,48
2018-03-02T05:57:54.715Z,52
2018-03-02T05:59:05.050Z,52
2018-03-02T06:00:14.897Z,56
2018-03-02T06:01:24.939Z,60
2018-03-02T06:02:34.726Z,60
2018-03-02T06:03:44.257Z,68
2018-03-02T06:04:54.104Z,76
2018-03-02T06:06:03.885Z,76
2018-03-02T06:07:13.953Z,88
2018-03-02T06:08:23.995Z,84
2018-03-02T06:09:33.522Z,84
2018-03-02T06:10:43.118Z,84
2018-03-02T06:11:53.179Z,92
2018-03-02T06:13:03.226Z,96
2018-03-02T06:14:13.278Z,104
2018-03-02T06:15:23.335Z,112
2018-03-02T06:16:33.212Z,116
2018-03-02T06:17:43.013Z,116
2018-03-02T06:18:53.053Z,124
2018-03-02T06:20:02.845Z,128
2018-03-02T06:21:12.633Z,136
2018-03-02T06:22:22.421Z,144
2018-03-02T06:23:32.488Z,144
2018-03-02T06:24:42.564Z,152
2018-03-02T06:25:52.356Z,156
2018-03-02T06:27:02.417Z,168
2018-03-02T06:28:12.212Z,180
2018-03-02T06:29:22.292Z,180
2018-03-02T06:30:32.353Z,172
2018-03-02T06:31:42.155Z,180
2018-03-02T06:32:51.956Z,196
2018-03-02T06:34:01.762Z,180
2018-03-02T06:35:11.554Z,180
2018-03-02T06:36:21.080Z,188
2018-03-02T06:37:30.885Z,192
2018-03-02T06:38:40.934Z,196
2018-03-02T06:39:50.987Z,216
2018-03-02T06:41:00.794Z,232
2018-03-02T06:42:10.873Z,232
2018-03-02T06:43:20.671Z,236
2018-03-02T06:44:30.734Z,252
2018-03-02T06:45:40.521Z,260
2018-03-02T06:46:50.066Z,288
2018-03-02T06:48:00.137Z,296
2018-03-02T06:49:10.202Z,316
2018-03-02T06:50:19.728Z,324
2018-03-02T06:51:29.526Z,344
2018-03-02T06:52:39.311Z,324
2018-03-02T06:53:49.099Z,340
2018-03-02T06:54:59.136Z,336
2018-03-02T06:56:08.691Z,324
2018-03-02T06:57:18.799Z,332
2018-03-02T06:58:28.316Z,364
2018-03-02T06:59:38.372Z,344
2018-03-02T07:00:48.434Z,340
2018-03-02T07:01:58.220Z,336
2018-03-02T07:03:08.014Z,352
2018-03-02T07:04:18.138Z,364
2018-03-02T07:05:27.682Z,388
2018-03-02T07:06:37.473Z,368
2018-03-02T07:07:47.524Z,364
2018-03-02T07:08:57.362Z,352
2018-03-02T07:10:07.423Z,372
2018-03-02T07:11:17.482Z,364
2018-03-02T07:12:27.545Z,368
2018-03-02T07:13:37.603Z,404
2018-03-02T07:14:47.647Z,412
2018-03-02T07:15:57.717Z,440
2018-03-02T07:17:07.255Z,472
2018-03-02T07:18:17.060Z,464
2018-03-02T07:19:27.138Z,464
2018-03-02T07:20:36.978Z,476
2018-03-02T07:21:46.780Z,504
2018-03-02T07:22:56.432Z,560
2018-03-02T07:24:06.227Z,604
2018-03-02T07:25:16.293Z,584
2018-03-02T07:26:26.362Z,504
2018-03-02T07:27:36.175Z,476
2018-03-02T07:28:45.711Z,524
2018-03-02T07:29:55.245Z,480
2018-03-02T07:31:05.024Z,492
2018-03-02T07:32:15.161Z,496
2018-03-02T07:33:24.950Z,524
2018-03-02T07:34:34.748Z,540
2018-03-02T07:35:44.607Z,516
2018-03-02T07:36:54.663Z,516
2018-03-02T07:38:04.714Z,532
2018-03-02T07:39:14.771Z,572
2018-03-02T07:40:24.815Z,576
2018-03-02T07:41:34.875Z,568
2018-03-02T07:42:44.403Z,648
2018-03-02T07:43:54.504Z,652
2018-03-02T07:45:04.304Z,608
2018-03-02T07:46:14.371Z,688
2018-03-02T07:47:24.432Z,676
2018-03-02T07:48:34.282Z,704
2018-03-02T07:49:44.075Z,692
2018-03-02T07:50:53.613Z,728
2018-03-02T07:52:03.417Z,720
2018-03-02T07:53:13.221Z,732
2018-03-02T07:54:23.274Z,736
2018-03-02T07:55:33.121Z,800
2018-03-02T07:56:43.183Z,784
2018-03-02T07:57:52.989Z,816
2018-03-02T07:59:02.528Z,840
2018-03-02T08:00:12.326Z,804
2018-03-02T08:01:22.114Z,784
2018-03-02T08:02:32.174Z,728
2018-03-02T08:03:41.698Z,728
2018-03-02T08:04:51.479Z,720
2018-03-02T08:06:01.007Z,688
2018-03-02T08:07:11.064Z,812
2018-03-02T08:08:20.843Z,748
2018-03-02T08:09:30.914Z,788
2018-03-02T08:10:40.968Z,732
2018-03-02T08:11:50.770Z,864
2018-03-02T08:13:00.599Z,780
2018-03-02T08:14:10.125Z,776
2018-03-02T08:15:19.932Z,876
2018-03-02T08:16:29.779Z,828
2018-03-02T08:17:39.567Z,872
2018-03-02T08:18:49.655Z,868
2018-03-02T08:19:59.708Z,828
2018-03-02T08:21:09.503Z,812
2018-03-02T08:22:19.302Z,824
2018-03-02T08:23:29.353Z,876
2018-03-02T08:24:39.230Z,920
2018-03-02T08:25:49.053Z,936
2018-03-02T08:26:59.160Z,924
2018-03-02T08:28:08.984Z,956
2018-03-02T08:29:19.048Z,980
2018-03-02T08:30:29.178Z,968
2018-03-02T08:31:39.310Z,1044
2018-03-02T08:32:49.452Z,1068
2018-03-02T08:33:58.985Z,1088
2018-03-02T08:35:08.780Z,1052
2018-03-02T08:36:18.878Z,1072
2018-03-02T08:37:28.414Z,1232
2018-03-02T08:38:38.199Z,1208
2018-03-02T08:39:47.988Z,1100
2018-03-02T08:40:57.800Z,1084
2018-03-02T08:42:07.489Z,1112
2018-03-02T08:43:17.296Z,1176
2018-03-02T08:44:27.101Z,1164
2018-03-02T08:45:37.191Z,1232
2018-03-02T08:46:47.263Z,1232
2018-03-02T08:47:57.322Z,1316
2018-03-02T08:49:07.386Z,1264
2018-03-02T08:50:16.902Z,1284
2018-03-02T08:51:27.068Z,1244
2018-03-02T08:52:37.119Z,1212
2018-03-02T08:53:47.256Z,1284
2018-03-02T08:54:56.788Z,1268
2018-03-02T08:56:06.062Z,1248
2018-03-02T08:57:16.126Z,1288
2018-03-02T08:58:25.918Z,1252
2018-03-02T08:59:36.006Z,1264
2018-03-02T09:00:46.100Z,1264
2018-03-02T09:01:55.916Z,1280
2018-03-02T09:03:05.706Z,1356
2018-03-02T09:04:15.499Z,1420
2018-03-02T09:05:25.315Z,1384
2018-03-02T09:06:35.092Z,1336
2018-03-02T09:07:45.180Z,1360
2018-03-02T09:08:55.349Z,1372
2018-03-02T09:10:04.957Z,1368
2018-03-02T09:11:14.554Z,1312
2018-03-02T09:12:24.641Z,1344
2018-03-02T09:13:34.700Z,1328
2018-03-02T09:14:44.500Z,1340
2018-03-02T09:15:54.295Z,1400
2018-03-02T09:17:04.372Z,1420
2018-03-02T09:18:14.454Z,1384
2018-03-02T09:19:24.496Z,1408
2018-03-02T09:20:34.054Z,1356
2018-03-02T09:21:44.112Z,1408
2018-03-02T09:22:53.947Z,1444
2018-03-02T09:24:04.004Z,1420
2018-03-02T09:25:13.816Z,1528
2018-03-02T09:26:23.623Z,1404
2018-03-02T09:27:33.157Z,1320
2018-03-02T09:28:43.010Z,1380
2018-03-02T09:29:52.813Z,1476
2018-03-02T09:31:02.621Z,1544
2018-03-02T09:32:12.670Z,1408
2018-03-02T09:33:22.735Z,1440
2018-03-02T09:34:32.816Z,1512
2018-03-02T09:35:42.600Z,1564
2018-03-02T09:36:52.379Z,1656
2018-03-02T09:38:02.184Z,1652
2018-03-02T09:39:11.989Z,1624
2018-03-02T09:40:22.084Z,1648
2018-03-02T09:41:31.893Z,1684
2018-03-02T09:42:41.861Z,1844
2018-03-02T09:43:52.034Z,1896
2018-03-02T09:45:01.838Z,2024
2018-03-02T09:46:11.915Z,1912
2018-03-02T09:47:21.450Z,1900
2018-03-02T09:48:31.511Z,1784
2018-03-02T09:49:41.387Z,1832
2018-03-02T09:50:51.458Z,1692
2018-03-02T09:52:01.253Z,1644
2018-03-02T09:53:11.347Z,1672
2018-03-02T09:54:21.470Z,1648
2018-03-02T09:55:31.245Z,1676
2018-03-02T09:56:40.789Z,1636
2018-03-02T09:57:50.866Z,1608
2018-03-02T09:59:00.658Z,1636
2018-03-02T10:00:10.729Z,1556
2018-03-02T10:01:20.562Z,1592
2018-03-02T10:02:30.361Z,1656
2018-03-02T10:03:40.163Z,1616
2018-03-02T10:04:50.010Z,1532
2018-03-02T10:06:00.073Z,1684
2018-03-02T10:07:10.138Z,1612
2018-03-02T10:08:19.934Z,1600
2018-03-02T10:09:29.464Z,1604
2018-03-02T10:10:39.515Z,1532
2018-03-02T10:11:49.312Z,1588
2018-03-02T10:12:59.377Z,1648
2018-03-02T10:14:09.510Z,1732
2018-03-02T10:15:19.300Z,1656
2018-03-02T10:16:29.100Z,1832
2018-03-02T10:17:38.898Z,1920
2018-03-02T10:18:48.945Z,1940
2018-03-02T10:19:59.081Z,1888
2018-03-02T10:21:08.609Z,1748
2018-03-02T10:22:18.388Z,1724
2018-03-02T10:23:28.264Z,1776
2018-03-02T10:24:38.056Z,1720
2018-03-02T10:25:48.260Z,1712
2018-03-02T10:26:58.056Z,1888
2018-03-02T10:28:07.884Z,1960
2018-03-02T10:29:17.942Z,1856
2018-03-02T10:30:27.759Z,1816
2018-03-02T10:31:37.029Z,2032
2018-03-02T10:32:47.108Z,2144
2018-03-02T10:33:57.180Z,1992
2018-03-02T10:35:07.012Z,1936
2018-03-02T10:36:16.824Z,1972
2018-03-02T10:37:26.621Z,1780
2018-03-02T10:38:36.683Z,1928
2018-03-02T10:39:46.480Z,2120
2018-03-02T10:40:56.592Z,1960
2018-03-02T10:42:06.131Z,2052
2018-03-02T10:43:16.186Z,1956
2018-03-02T10:44:25.742Z,2020
2018-03-02T10:45:35.821Z,1996
2018-03-02T10:46:45.866Z,2008
2018-03-02T10:47:55.707Z,1944
2018-03-02T10:49:04.992Z,1876
2018-03-02T10:50:15.071Z,1816
2018-03-02T10:51:24.921Z,1768
2018-03-02T10:52:34.987Z,1856
2018-03-02T10:53:44.785Z,1912
2018-03-02T10:54:54.644Z,2164
2018-03-02T10:56:04.728Z,2172
2018-03-02T10:57:14.802Z,2032
2018-03-02T10:58:24.847Z,2068
2018-03-02T10:59:34.382Z,2180
2018-03-02T11:00:44.574Z,2256
2018-03-02T11:01:54.468Z,2252
2018-03-02T11:03:04.017Z,2392
2018-03-02T11:04:14.069Z,2396
2018-03-02T11:05:23.870Z,2336
2018-03-02T11:06:34.004Z,2276
2018-03-02T11:07:43.791Z,2316
2018-03-02T11:08:53.851Z,2284
2018-03-02T11:10:03.903Z,2328
2018-03-02T11:11:13.726Z,2312
2018-03-02T11:12:23.622Z,2288
2018-03-02T11:13:33.679Z,2256
2018-03-02T11:14:43.722Z,2064
2018-03-02T11:15:53.780Z,1972
2018-03-02T11:17:03.841Z,2028
2018-03-02T11:18:13.731Z,2068
2018-03-02T11:19:23.809Z,1988
2018-03-02T11:20:33.868Z,2092
2018-03-02T11:21:43.402Z,2040
2018-03-02T11:22:53.473Z,1952
2018-03-02T11:24:03.573Z,2024
2018-03-02T11:25:13.631Z,1960
2018-03-02T11:26:23.689Z,1896
2018-03-02T11:27:33.741Z,1860
2018-03-02T11:28:43.537Z,1808
2018-03-02T11:29:53.341Z,1872
2018-03-02T11:31:02.860Z,1908
2018-03-02T11:32:12.932Z,2048
2018-03-02T11:33:22.730Z,2072
2018-03-02T11:34:32.801Z,1872
2018-03-02T11:35:42.997Z,1704
2018-03-02T11:36:53.095Z,1876
2018-03-02T11:38:03.190Z,1996
2018-03-02T11:39:12.732Z,1848
2018-03-02T11:40:22.808Z,1732
2018-03-02T11:41:32.882Z,1988
2018-03-02T11:42:42.676Z,1836
2018-03-02T11:43:52.721Z,1904
2018-03-02T11:45:02.778Z,2068
2018-03-02T11:46:12.891Z,2008
2018-03-02T11:47:22.428Z,1944
2018-03-02T11:48:32.248Z,2092
2018-03-02T11:49:41.789Z,2032
2018-03-02T11:50:51.583Z,2108
2018-03-02T11:52:01.114Z,2140
2018-03-02T11:53:10.910Z,2132
2018-03-02T11:54:20.696Z,2152
2018-03-02T11:55:30.759Z,2052
2018-03-02T11:56:40.831Z,1868
2018-03-02T11:57:50.912Z,1864
2018-03-02T11:59:01.108Z,2024
2018-03-02T12:00:11.150Z,2116
2018-03-02T12:01:20.929Z,1984
2018-03-02T12:02:30.745Z,2044
2018-03-02T12:03:40.283Z,2180
2018-03-02T12:04:50.138Z,2156
2018-03-02T12:05:59.954Z,2148
2018-03-02T12:07:09.743Z,2088
2018-03-02T12:08:19.818Z,2304
2018-03-02T12:09:29.951Z,2284
2018-03-02T12:10:40.099Z,2228
2018-03-02T12:11:49.643Z,2224
2018-03-02T12:12:59.695Z,2372
2018-03-02T12:14:09.490Z,2484
2018-03-02T12:15:19.392Z,2516
2018-03-02T12:16:29.485Z,2520
2018-03-02T12:17:39.538Z,2488
2018-03-02T12:18:49.606Z,2480
2018-03-02T12:19:59.685Z,2496
2018-03-02T12:21:09.750Z,2592
2018-03-02T12:22:19.546Z,2560
2018-03-02T12:23:29.632Z,2500
2018-03-02T12:24:39.446Z,2476
2018-03-02T12:25:49.258Z,2492
2018-03-02T12:26:59.060Z,2608
2018-03-02T12:28:08.843Z,2608
2018-03-02T12:29:18.634Z,2628
2018-03-02T12:30:28.696Z,2484
2018-03-02T12:31:38.552Z,2280
2018-03-02T12:32:48.346Z,2008
2018-03-02T12:33:57.862Z,2020
2018-03-02T12:35:07.923Z,2380
2018-03-02T12:36:17.459Z,2172
2018-03-02T12:37:27.312Z,1920
2018-03-02T12:38:37.375Z,2208
2018-03-02T12:39:47.448Z,2240
2018-03-02T12:40:57.509Z,2348
2018-03-02T12:42:07.325Z,2440
2018-03-02T12:43:17.542Z,2436
2018-03-02T12:44:27.696Z,2412
2018-03-02T12:45:36.983Z,2400
2018-03-02T12:46:47.031Z,2496
2018-03-02T12:47:56.829Z,2476
2018-03-02T12:49:06.908Z,2456
2018-03-02T12:50:17.074Z,2492
2018-03-02T12:51:26.866Z,2408
2018-03-02T12:52:36.931Z,2504
2018-03-02T12:53:46.997Z,2528
2018-03-02T12:54:56.520Z,2708
2018-03-02T12:56:06.325Z,2680
2018-03-02T12:57:15.901Z,2612
2018-03-02T12:58:25.730Z,2528
2018-03-02T12:59:35.258Z,2608
2018-03-02T13:00:45.074Z,2588
2018-03-02T13:01:54.866Z,2556
2018-03-02T13:03:04.657Z,2528
2018-03-02T13:04:14.736Z,2432
2018-03-02T13:05:24.803Z,2340
2018-03-02T13:06:34.871Z,2300
2018-03-02T13:07:44.664Z,2264
2018-03-02T13:08:54.718Z,2200
2018-03-02T13:10:04.773Z,2032
2018-03-02T13:11:15.090Z,1948
2018-03-02T13:12:24.879Z,1928
2018-03-02T13:13:47.681Z,1876
2018-03-02T13:14:57.493Z,1768
2018-03-02T13:16:07.272Z,1716
2018-03-02T13:17:17.132Z,1788
2018-03-02T13:18:26.918Z,1692
2018-03-02T13:19:36.708Z,1704
2018-03-02T13:20:46.801Z,1688
2018-03-02T13:21:56.368Z,1736
2018-03-02T13:23:06.180Z,1896
2018-03-02T13:24:15.977Z,1980
2018-03-02T13:25:26.035Z,2076
2018-03-02T13:26:35.851Z,2188
2018-03-02T13:27:45.906Z,2316
2018-03-02T13:28:56.036Z,2128
2018-03-02T13:30:05.836Z,2040
2018-03-02T13:31:15.637Z,2068
2018-03-02T13:32:25.719Z,2116
2018-03-02T13:33:35.279Z,2144
2018-03-02T13:34:45.318Z,2160
2018-03-02T13:35:55.390Z,2176
2018-03-02T13:37:05.472Z,2276
2018-03-02T13:38:15.548Z,2344
2018-03-02T13:39:25.626Z,2460
2018-03-02T13:40:35.748Z,2516
2018-03-02T13:41:45.540Z,2528
2018-03-02T13:42:55.084Z,2344
2018-03-02T13:44:05.157Z,2484
2018-03-02T13:45:15.238Z,2356
2018-03-02T13:46:25.094Z,2444
2018-03-02T13:47:34.920Z,2352
2018-03-02T13:48:44.706Z,2232
2018-03-02T13:49:54.777Z,2144
2018-03-02T13:51:04.858Z,2184
2018-03-02T13:52:14.661Z,2168
2018-03-02T13:53:23.928Z,2052
2018-03-02T13:54:34.007Z,2000
2018-03-02T13:55:44.069Z,2004
2018-03-02T13:56:54.122Z,2068
2018-03-02T13:58:03.919Z,2060
2018-03-02T13:59:13.724Z,1960
2018-03-02T14:00:23.919Z,1908
2018-03-02T14:01:33.733Z,1860
2018-03-02T14:02:43.536Z,1840
2018-03-02T14:03:53.074Z,1796
2018-03-02T14:05:03.139Z,1808
2018-03-02T14:06:13.211Z,1732
2018-03-02T14:07:23.038Z,1644
2018-03-02T14:08:33.109Z,1612
2018-03-02T14:09:43.360Z,1584
2018-03-02T14:10:53.442Z,1576
2018-03-02T14:12:02.979Z,1484
2018-03-02T14:13:12.507Z,1388
2018-03-02T14:14:22.304Z,1324
2018-03-02T14:15:32.099Z,1312
2018-03-02T14:16:41.886Z,1288
2018-03-02T14:17:51.952Z,1276
2018-03-02T14:19:02.012Z,1280
2018-03-02T14:20:12.082Z,1260
2018-03-02T14:21:22.180Z,1248
2018-03-02T14:22:32.274Z,1008
2018-03-02T14:23:42.340Z,936
2018-03-02T14:24:52.416Z,1056
2018-03-02T14:26:02.218Z,1000
2018-03-02T14:27:11.787Z,896
2018-03-02T14:28:21.589Z,940
2018-03-02T14:29:31.126Z,976
2018-03-02T14:30:41.214Z,920
2018-03-02T14:31:51.016Z,920
2018-03-02T14:33:00.869Z,944
2018-03-02T14:34:10.791Z,944
2018-03-02T14:35:20.848Z,984
2018-03-02T14:36:30.135Z,1000
2018-03-02T14:37:39.967Z,976
2018-03-02T14:38:49.826Z,956
2018-03-02T14:39:59.607Z,960
2018-03-02T14:41:09.423Z,1032
2018-03-02T14:42:18.957Z,1100
2018-03-02T14:43:29.012Z,1144
2018-03-02T14:44:38.832Z,1152
2018-03-02T14:45:48.897Z,1124
2018-03-02T14:46:58.693Z,1136
2018-03-02T14:48:08.263Z,1144
2018-03-02T14:49:18.106Z,1180
2018-03-02T14:50:27.902Z,1168
2018-03-02T14:51:38.164Z,1164
2018-03-02T14:52:48.452Z,1148
2018-03-02T14:53:58.298Z,1120
2018-03-02T14:55:08.180Z,1108
2018-03-02T14:56:18.242Z,1068
2018-03-02T14:57:28.042Z,1008
2018-03-02T14:58:37.840Z,956
2018-03-02T14:59:47.921Z,908
2018-03-02T15:00:57.982Z,896
2018-03-02T15:02:07.789Z,944
2018-03-02T15:03:17.869Z,1000
2018-03-02T15:04:27.929Z,1096
2018-03-02T15:05:37.859Z,1136
2018-03-02T15:06:47.980Z,1104
2018-03-02T15:07:57.789Z,1064
2018-03-02T15:09:07.874Z,996
2018-03-02T15:10:17.968Z,944
2018-03-02T15:11:27.811Z,880
2018-03-02T15:12:37.939Z,788
2018-03-02T15:13:48.092Z,732
2018-03-02T15:14:58.140Z,712
2018-03-02T15:16:07.941Z,684
2018-03-02T15:17:17.988Z,632
2018-03-02T15:18:27.809Z,600
2018-03-02T15:19:37.880Z,616
2018-03-02T15:20:47.947Z,608
2018-03-02T15:21:57.487Z,588
2018-03-02T15:23:07.662Z,556
2018-03-02T15:24:17.509Z,548
2018-03-02T15:25:27.654Z,524
2018-03-02T15:26:37.729Z,492
2018-03-02T15:27:47.543Z,496
2018-03-02T15:28:57.352Z,496
2018-03-02T15:30:07.435Z,472
2018-03-02T15:31:16.970Z,460
2018-03-02T15:32:27.039Z,428
2018-03-02T15:33:36.835Z,412
2018-03-02T15:34:46.645Z,412
2018-03-02T15:35:56.180Z,404
2018-03-02T15:37:05.717Z,380
2018-03-02T15:38:15.264Z,388
2018-03-02T15:39:24.791Z,380
2018-03-02T15:40:34.892Z,372
2018-03-02T15:41:44.682Z,344
2018-03-02T15:42:54.246Z,352
2018-03-02T15:44:04.309Z,348
2018-03-02T15:45:14.181Z,320
2018-03-02T15:46:24.232Z,304
2018-03-02T15:47:34.330Z,276
2018-03-02T15:48:44.136Z,252
2018-03-02T15:49:53.962Z,240
2018-03-02T15:51:04.050Z,228
2018-03-02T15:52:13.868Z,208
2018-03-02T15:53:23.932Z,204
2018-03-02T15:54:33.994Z,204
2018-03-02T15:55:43.797Z,188
2018-03-02T15:56:53.609Z,180
2018-03-02T15:58:03.695Z,180
2018-03-02T15:59:13.492Z,180
2018-03-02T16:00:23.062Z,168
2018-03-02T16:01:32.864Z,164
2018-03-02T16:02:42.938Z,152
2018-03-02T16:03:52.492Z,144
2018-03-02T16:05:02.295Z,140
2018-03-02T16:06:12.386Z,132
2018-03-02T16:07:22.438Z,124
2018-03-02T16:08:32.319Z,112
2018-03-02T16:09:42.390Z,112
2018-03-02T16:10:52.195Z,108
2018-03-02T16:12:02.269Z,104
2018-03-02T16:13:12.101Z,100
2018-03-02T16:14:22.313Z,100
2018-03-02T16:15:32.390Z,92
2018-03-02T16:16:42.432Z,88
2018-03-02T16:17:52.504Z,80
2018-03-02T16:19:02.557Z,76
2018-03-02T16:20:12.633Z,72
2018-03-02T16:21:22.713Z,72
2018-03-02T16:22:32.793Z,68
2018-03-02T16:23:42.872Z,64
2018-03-02T16:24:52.948Z,64
2018-03-02T16:26:03.108Z,56
2018-03-02T16:27:13.234Z,52
2018-03-02T16:28:23.055Z,48
2018-03-02T16:29:32.861Z,44
2018-03-02T16:30:42.649Z,40
2018-03-02T16:31:52.461Z,36
2018-03-02T16:33:02.541Z,32
2018-03-02T16:34:12.668Z,28
2018-03-02T16:35:22.692Z,28
2018-03-02T16:36:32.503Z,28
2018-03-02T16:37:42.064Z,24
2018-03-02T16:38:52.132Z,20
2018-03-02T16:40:02.258Z,20
2018-03-02T16:41:12.314Z,20
2018-03-02T16:42:22.386Z,20
2018-03-02T16:43:32.472Z,16